createdAt,value
2023-05-10T00:02:18.171Z,51.89
2023-05-10T00:07:20.469Z,52.10
2023-05-10T00:12:22.451Z,52.19
2023-05-10T00:17:24.346Z,51.77
2023-05-10T00:22:26.102Z,52.63
2023-05-10T00:27:28.210Z,52.98
2023-05-10T00:32:30.290Z,53.13
2023-05-10T00:37:32.044Z,53.31
2023-05-10T00:42:34.121Z,53.47
2023-05-10T00:47:36.532Z,53.58
2023-05-10T00:52:38.811Z,53.77
2023-05-10T00:57:40.990Z,53.82
2023-05-10T01:02:43.371Z,53.82
2023-05-10T01:07:45.387Z,54.11
2023-05-10T01:12:48.313Z,53.83
2023-05-10T01:17:51.531Z,54.07
2023-05-10T01:23:31.338Z,54.06
2023-05-10T01:29:12.984Z,54.01
2023-05-10T01:34:26.192Z,53.78
2023-05-10T01:39:38.921Z,54.20
2023-05-10T01:44:54.736Z,54.22
2023-05-10T01:50:02.662Z,54.21
2023-05-10T01:55:13.936Z,54.55
2023-05-10T02:00:17.873Z,53.92
2023-05-10T02:05:22.299Z,54.21
2023-05-10T02:10:24.492Z,53.75
2023-05-10T02:15:28.164Z,53.50
2023-05-10T02:20:32.944Z,53.91
2023-05-10T02:25:36.672Z,54.56
2023-05-10T02:30:39.916Z,54.70
2023-05-10T02:35:42.883Z,54.35
2023-05-10T02:40:46.833Z,53.95
2023-05-10T02:45:49.366Z,54.46
2023-05-10T02:50:55.489Z,55.33
2023-05-10T02:56:04.727Z,55.50
2023-05-10T03:01:08.282Z,55.01
2023-05-10T03:06:10.226Z,55.04
2023-05-10T03:11:46.004Z,55.30
2023-05-10T03:17:04.985Z,54.06
2023-05-10T03:22:12.077Z,53.66
2023-05-10T03:27:15.908Z,53.92
2023-05-10T03:32:18.199Z,53.68
2023-05-10T03:37:19.987Z,53.69
2023-05-10T03:42:21.745Z,53.83
2023-05-10T03:47:23.827Z,53.42
2023-05-10T03:52:25.904Z,53.65
2023-05-10T03:57:27.686Z,53.64
2023-05-10T04:02:30.991Z,53.75
2023-05-10T04:07:33.191Z,54.75
2023-05-10T04:12:34.875Z,53.95
2023-05-10T04:17:36.865Z,53.72
2023-05-10T04:22:38.813Z,53.42
2023-05-10T04:27:40.822Z,53.78
2023-05-10T04:32:42.678Z,53.53
2023-05-10T04:37:44.755Z,53.18
2023-05-10T04:42:47.145Z,52.61
2023-05-10T04:47:48.903Z,52.44
2023-05-10T04:52:51.300Z,52.31
2023-05-10T04:57:57.398Z,51.63
2023-05-10T05:02:59.455Z,50.85
2023-05-10T05:08:01.653Z,50.69
2023-05-10T05:13:03.553Z,50.33
2023-05-10T05:18:05.358Z,49.97
2023-05-10T05:23:07.219Z,49.93
2023-05-10T05:28:08.953Z,49.03
2023-05-10T05:33:10.749Z,48.37
2023-05-10T05:38:12.706Z,47.85
2023-05-10T05:43:14.605Z,47.29
2023-05-10T05:48:16.377Z,46.82
2023-05-10T05:53:18.339Z,46.11
2023-05-10T05:58:21.236Z,45.21
2023-05-10T06:03:23.334Z,44.60
2023-05-10T06:08:26.331Z,43.99
2023-05-10T06:13:33.072Z,43.81
2023-05-10T06:18:35.412Z,43.56
2023-05-10T06:23:37.297Z,43.02
2023-05-10T06:28:39.673Z,42.09
2023-05-10T06:33:41.496Z,41.45
2023-05-10T06:38:43.226Z,41.08
2023-05-10T06:43:45.000Z,40.60
2023-05-10T06:48:46.790Z,40.19
2023-05-10T06:53:48.654Z,39.91
2023-05-10T06:58:50.765Z,39.29
2023-05-10T07:03:52.647Z,38.96
2023-05-10T07:08:54.488Z,38.61
2023-05-10T07:13:56.676Z,38.08
2023-05-10T07:18:58.589Z,36.61
2023-05-10T07:24:01.455Z,36.06
2023-05-10T07:29:03.551Z,35.26
2023-05-10T07:34:05.521Z,35.69
2023-05-10T07:39:08.111Z,34.79
2023-05-10T07:44:09.996Z,34.18
2023-05-10T07:49:11.757Z,33.45
2023-05-10T07:54:15.177Z,32.93
2023-05-10T07:59:18.469Z,32.49
2023-05-10T08:04:20.413Z,31.86
2023-05-10T08:09:24.390Z,31.55
2023-05-10T08:14:30.883Z,31.58
2023-05-10T08:19:32.792Z,31.09
2023-05-10T08:24:38.725Z,30.58
2023-05-10T08:29:49.353Z,29.64
2023-05-10T08:34:51.699Z,29.02
2023-05-10T08:39:53.697Z,29.56
2023-05-10T08:44:58.541Z,29.19
2023-05-10T08:50:03.489Z,29.43
2023-05-10T08:55:05.685Z,28.91
2023-05-10T09:00:09.787Z,28.79
2023-05-10T09:05:11.885Z,28.31
2023-05-10T09:10:15.293Z,27.82
2023-05-10T09:15:19.774Z,27.64
2023-05-10T09:20:21.802Z,27.03
2023-05-10T09:25:23.647Z,27.10
2023-05-10T09:30:31.553Z,26.86
2023-05-10T09:35:34.315Z,26.76
2023-05-10T09:40:36.181Z,26.56
2023-05-10T09:45:39.209Z,26.67
2023-05-10T09:50:42.493Z,26.08
2023-05-10T09:55:47.174Z,25.85
2023-05-10T10:00:52.747Z,25.70
2023-05-10T10:05:56.456Z,25.32
2023-05-10T10:10:58.927Z,25.66
2023-05-10T10:16:00.814Z,25.48
2023-05-10T10:21:03.293Z,25.34
2023-05-10T10:26:06.900Z,25.26
2023-05-10T10:32:05.207Z,25.44
2023-05-10T10:37:07.656Z,25.39
2023-05-10T10:42:09.918Z,25.15
2023-05-10T10:47:12.582Z,25.04
2023-05-10T10:52:20.962Z,25.27
2023-05-10T10:57:22.781Z,24.75
2023-05-10T11:03:09.005Z,24.59
2023-05-10T11:08:32.180Z,24.27
2023-05-10T11:13:41.422Z,24.02
2023-05-10T11:19:10.046Z,23.76
2023-05-10T11:24:18.906Z,24.05
2023-05-10T11:29:21.164Z,23.57
2023-05-10T11:34:30.623Z,23.69
2023-05-10T11:39:34.018Z,23.65
2023-05-10T11:44:36.045Z,23.23
2023-05-10T11:49:37.819Z,23.15
2023-05-10T11:54:52.118Z,22.85
2023-05-10T11:59:55.667Z,22.62
2023-05-10T12:04:58.142Z,22.36
2023-05-10T12:10:27.337Z,22.40
2023-05-10T12:15:29.168Z,22.59
2023-05-10T12:20:31.335Z,22.33
2023-05-10T12:25:38.231Z,21.89
2023-05-10T12:30:40.216Z,21.69
2023-05-10T12:35:51.582Z,21.27
2023-05-10T12:40:53.533Z,20.95
2023-05-10T12:45:56.432Z,20.86
2023-05-10T12:50:58.168Z,20.85
2023-05-10T12:55:59.961Z,20.86
2023-05-10T13:01:02.053Z,20.82
2023-05-10T13:06:04.744Z,20.46
2023-05-10T13:11:06.905Z,20.13
2023-05-10T13:16:08.816Z,19.61
2023-05-10T13:21:11.792Z,19.59
2023-05-10T13:26:13.867Z,19.43
2023-05-10T13:31:16.028Z,19.68
2023-05-10T13:36:18.031Z,19.77
2023-05-10T13:41:19.824Z,19.59
2023-05-10T13:46:21.828Z,19.80
2023-05-10T13:51:23.667Z,19.56
2023-05-10T13:56:25.555Z,19.32
2023-05-10T14:01:27.749Z,18.77
2023-05-10T14:06:29.752Z,18.72
2023-05-10T14:11:31.704Z,18.92
2023-05-10T14:16:33.617Z,18.53
2023-05-10T14:21:35.860Z,18.71
2023-05-10T14:26:37.839Z,18.41
2023-05-10T14:31:41.312Z,18.09
2023-05-10T14:36:43.128Z,18.03
2023-05-10T14:41:46.333Z,18.40
2023-05-10T14:46:49.030Z,18.29
2023-05-10T14:51:50.817Z,18.33
2023-05-10T14:56:52.575Z,18.20
2023-05-10T15:01:54.464Z,18.33
2023-05-10T15:06:59.709Z,18.39
2023-05-10T15:12:01.697Z,18.48
2023-05-10T15:17:03.972Z,18.34
2023-05-10T15:22:06.282Z,18.50
2023-05-10T15:27:08.253Z,18.48
2023-05-10T15:32:10.329Z,18.70
2023-05-10T15:37:12.311Z,18.70
2023-05-10T15:42:14.082Z,18.57
2023-05-10T15:47:15.990Z,18.67
2023-05-10T15:52:18.864Z,18.84
2023-05-10T15:57:20.756Z,18.67
2023-05-10T16:02:22.946Z,19.01
2023-05-10T16:07:25.177Z,19.18
2023-05-10T16:12:27.716Z,19.24
2023-05-10T16:17:29.414Z,19.24
2023-05-10T16:22:31.358Z,19.17
2023-05-10T16:27:33.346Z,19.29
2023-05-10T16:32:35.464Z,19.24
2023-05-10T16:37:37.449Z,19.28
2023-05-10T16:42:39.291Z,19.43
2023-05-10T16:47:41.278Z,19.44
2023-05-10T16:52:43.648Z,19.76
2023-05-10T16:57:45.747Z,19.92
2023-05-10T17:02:48.846Z,20.05
2023-05-10T17:07:50.866Z,20.34
2023-05-10T17:12:53.309Z,20.43
2023-05-10T17:17:55.625Z,20.53
2023-05-10T17:22:58.100Z,20.78
2023-05-10T17:28:00.115Z,21.14
2023-05-10T17:33:02.696Z,21.73
2023-05-10T17:38:04.640Z,22.06
2023-05-10T17:43:06.930Z,22.54
2023-05-10T17:48:10.857Z,22.97
2023-05-10T17:53:12.836Z,23.30
2023-05-10T17:58:15.171Z,23.62
2023-05-10T18:03:17.203Z,23.96
2023-05-10T18:08:22.367Z,24.17
2023-05-10T18:13:25.260Z,24.77
2023-05-10T18:18:27.284Z,25.05
2023-05-10T18:23:29.125Z,25.37
2023-05-10T18:28:31.161Z,25.66
2023-05-10T18:33:33.086Z,26.13
2023-05-10T18:38:34.978Z,26.44
2023-05-10T18:43:36.843Z,26.73
2023-05-10T18:48:38.611Z,27.11
2023-05-10T18:53:40.486Z,27.30
2023-05-10T18:58:42.362Z,27.68
2023-05-10T19:03:44.259Z,28.12
2023-05-10T19:08:46.118Z,28.43
2023-05-10T19:13:47.892Z,28.76
2023-05-10T19:18:51.864Z,29.37
2023-05-10T19:23:54.447Z,30.29
2023-05-10T19:28:57.278Z,30.73
2023-05-10T19:34:00.760Z,31.44
2023-05-10T19:39:03.340Z,32.25
2023-05-10T19:44:05.105Z,32.66
2023-05-10T19:49:07.293Z,33.07
2023-05-10T19:54:09.256Z,33.70
2023-05-10T19:59:11.149Z,33.96
2023-05-10T20:04:13.122Z,34.36
2023-05-10T20:09:15.713Z,34.95
2023-05-10T20:14:17.796Z,36.19
2023-05-10T20:19:19.564Z,37.92
2023-05-10T20:24:21.869Z,39.49
2023-05-10T20:29:23.859Z,39.81
2023-05-10T20:34:25.616Z,39.60
2023-05-10T20:39:28.625Z,39.90
2023-05-10T20:44:30.700Z,40.59
2023-05-10T20:49:33.472Z,41.25
2023-05-10T20:54:35.394Z,41.35
2023-05-10T20:59:37.358Z,42.03
2023-05-10T21:04:39.272Z,42.88
2023-05-10T21:09:41.322Z,44.62
2023-05-10T21:14:43.818Z,46.53
2023-05-10T21:19:45.690Z,47.43
2023-05-10T21:24:47.692Z,47.62
2023-05-10T21:29:49.566Z,47.66
2023-05-10T21:34:51.321Z,47.80
2023-05-10T21:39:53.604Z,47.75
2023-05-10T21:44:55.391Z,47.97
2023-05-10T21:49:57.200Z,48.10
2023-05-10T21:54:59.044Z,48.14
2023-05-10T22:00:01.040Z,47.93
2023-05-10T22:05:03.606Z,48.01
2023-05-10T22:10:07.371Z,47.78
2023-05-10T22:15:11.093Z,47.87
2023-05-10T22:20:13.451Z,47.79
2023-05-10T22:25:15.629Z,48.08
2023-05-10T22:30:18.912Z,48.00
2023-05-10T22:35:21.321Z,48.09
2023-05-10T22:40:23.312Z,48.21
2023-05-10T22:45:25.280Z,48.53
2023-05-10T22:50:29.219Z,48.65
2023-05-10T22:55:30.982Z,48.78
2023-05-10T23:00:33.473Z,49.21
2023-05-10T23:05:35.284Z,49.57
2023-05-10T23:10:38.051Z,49.70
2023-05-10T23:15:40.159Z,50.07
2023-05-10T23:20:44.678Z,50.08
2023-05-10T23:25:46.556Z,50.00
2023-05-10T23:30:57.959Z,49.55
2023-05-10T23:35:59.726Z,48.39
2023-05-10T23:41:01.536Z,48.25
2023-05-10T23:46:07.153Z,48.00
2023-05-10T23:51:08.882Z,48.80
2023-05-10T23:56:11.439Z,49.52
